Time;durP1;ratioP1;P1;durP2;ratioP2;P2;SDS_P1;SDS_P2;PMS_P1;PMS_P2;Temp;Humidity;BMP_temperature;BMP_pressure;BME280_temperature;BME280_humidity;BME280_pressure;Samples;Min_cycle;Max_cycle;Signal;HPM_P1;HPM_P2
2021/01/23 00:01:58;;;;;;;29.63;16.30;;;;;;;0.34;99.34;99521.81;6246089;28;20056;-74
2021/01/23 00:04:58;;;;;;;30.05;15.35;;;;;;;0.31;98.99;99513.31;6245795;28;20468;-73
2021/01/23 00:08:02;;;;;;;31.83;14.70;;;;;;;0.31;99.12;99511.56;6245572;28;20107;-73
2021/01/23 00:11:03;;;;;;;32.13;14.10;;;;;;;0.28;99.14;99508.25;6245415;28;20635;-75
2021/01/23 00:14:04;;;;;;;29.45;14.95;;;;;;;0.28;100.00;99511.69;6245801;28;20068;-75
2021/01/23 00:17:05;;;;;;;33.95;15.40;;;;;;;0.25;99.50;99509.19;6245711;28;20049;-74
2021/01/23 00:20:07;;;;;;;28.35;14.68;;;;;;;0.23;99.44;99504.09;6245504;28;20128;-74
2021/01/23 00:23:08;;;;;;;36.55;15.35;;;;;;;0.24;99.59;99507.50;6245236;28;20060;-74
2021/01/23 00:26:09;;;;;;;30.65;16.08;;;;;;;0.24;99.90;99503.19;6249748;28;20061;-75
2021/01/23 00:29:12;;;;;;;33.95;16.75;;;;;;;0.23;100.00;99504.09;6250322;28;20045;-74
2021/01/23 00:32:13;;;;;;;33.25;14.95;;;;;;;0.23;100.00;99503.25;6251167;28;20414;-75
2021/01/23 00:35:14;;;;;;;29.58;15.20;;;;;;;0.21;100.00;99498.09;6250132;28;20054;-75
2021/01/23 00:38:16;;;;;;;33.20;15.85;;;;;;;0.23;100.00;99492.91;6249925;28;20103;-75
2021/01/23 00:41:18;;;;;;;30.25;15.82;;;;;;;0.22;100.00;99494.63;6249415;28;20115;-74
2021/01/23 00:44:19;;;;;;;39.53;15.63;;;;;;;0.23;100.00;99493.75;6250140;28;20091;-77
2021/01/23 00:47:19;;;;;;;39.67;16.60;;;;;;;0.22;100.00;99484.28;6249464;28;20076;-76
2021/01/23 00:50:20;;;;;;;30.90;15.38;;;;;;;0.23;100.00;99488.59;6248739;28;20049;-75
2021/01/23 00:53:21;;;;;;;37.55;16.88;;;;;;;0.24;100.00;99495.44;6241374;28;20045;-75
2021/01/23 00:56:23;;;;;;;32.53;16.20;;;;;;;0.24;100.00;99495.44;6236950;28;20061;-76
2021/01/23 00:59:23;;;;;;;29.27;15.35;;;;;;;0.28;100.00;99496.19;6246341;28;20495;-74
2021/01/23 01:02:24;;;;;;;31.02;15.85;;;;;;;0.28;100.00;99493.59;6250259;28;20103;-75
2021/01/23 01:05:25;;;;;;;30.08;15.48;;;;;;;0.28;100.00;99497.94;6249305;28;20458;-75
2021/01/23 01:08:27;;;;;;;36.30;16.42;;;;;;;0.27;100.00;99491.88;6248927;28;20053;-76
2021/01/23 01:11:28;;;;;;;32.17;16.75;;;;;;;0.28;100.00;99493.59;6248934;28;20049;-75
2021/01/23 01:14:29;;;;;;;32.10;16.13;;;;;;;0.29;100.00;99497.03;6248447;28;20041;-74
2021/01/23 01:17:30;;;;;;;33.40;17.05;;;;;;;0.29;100.00;99499.63;6248493;28;20107;-74
2021/01/23 01:20:31;;;;;;;34.17;15.45;;;;;;;0.29;100.00;99503.03;6248746;28;20498;-74
2021/01/23 01:23:31;;;;;;;31.15;17.40;;;;;;;0.29;100.00;99497.03;6248748;28;20046;-74
2021/01/23 01:26:33;;;;;;;32.95;17.73;;;;;;;0.30;100.00;99496.13;6248823;28;20056;-74
2021/01/23 01:29:34;;;;;;;41.88;16.85;;;;;;;0.27;100.00;99493.63;6248011;28;20045;-74
2021/01/23 01:32:35;;;;;;;34.03;16.65;;;;;;;0.27;100.00;99496.22;6272000;28;20135;-76
2021/01/23 01:35:36;;;;;;;42.22;16.42;;;;;;;0.27;100.00;99494.47;6272713;28;20441;-74
2021/01/23 01:38:37;;;;;;;31.50;17.02;;;;;;;0.25;100.00;99506.59;6272841;28;20206;-74
2021/01/23 01:41:39;;;;;;;34.78;16.10;;;;;;;0.23;100.00;99509.25;6273135;28;20057;-75
2021/01/23 01:44:40;;;;;;;37.60;16.60;;;;;;;0.22;100.00;99509.28;6267692;28;20057;-74
2021/01/23 01:47:41;;;;;;;41.63;17.33;;;;;;;0.22;100.00;99510.13;6247575;28;20049;-75
2021/01/23 01:50:42;;;;;;;31.92;16.85;;;;;;;0.21;100.00;99508.44;6248106;28;20053;-74
2021/01/23 01:53:45;;;;;;;31.15;16.88;;;;;;;0.21;100.00;99505.00;6248152;28;20414;-74
2021/01/23 01:56:46;;;;;;;36.80;18.10;;;;;;;0.21;100.00;99507.59;6247772;28;20056;-74
2021/01/23 01:59:48;;;;;;;31.88;16.38;;;;;;;0.21;100.00;99500.69;6253273;28;20045;-74
2021/01/23 02:03:15;;;;;;;30.02;16.17;;;;;;;0.19;100.00;99512.81;6272510;28;20049;-75
2021/01/23 02:06:32;;;;;;;42.58;18.05;;;;;;;0.19;100.00;99507.66;6272526;28;20052;-75
2021/01/23 02:09:47;;;;;;;34.20;18.27;;;;;;;0.20;100.00;99504.16;6272469;28;20040;-75
2021/01/23 02:13:07;;;;;;;40.65;17.02;;;;;;;0.23;100.00;99509.25;6272439;28;20053;-75
2021/01/23 02:16:12;;;;;;;34.90;17.42;;;;;;;0.25;100.00;99522.94;6272241;28;20480;-73
2021/01/23 02:19:31;;;;;;;31.75;16.25;;;;;;;0.24;100.00;99516.09;6252532;28;20140;-74
2021/01/23 02:23:09;;;;;;;36.13;17.75;;;;;;;0.23;100.00;99523.91;6247719;28;20056;-73
2021/01/23 02:26:13;;;;;;;39.90;17.25;;;;;;;0.22;100.00;99522.19;6247064;28;20042;-74
2021/01/23 02:29:26;;;;;;;32.78;16.67;;;;;;;0.21;100.00;99521.34;6247113;28;20096;-73
2021/01/23 02:32:30;;;;;;;33.90;16.70;;;;;;;0.20;100.00;99527.41;6226920;28;20061;-76
2021/01/23 02:35:32;;;;;;;35.08;17.08;;;;;;;0.19;100.00;99527.47;6247101;28;20099;-77
2021/01/23 02:38:33;;;;;;;38.00;17.85;;;;;;;0.21;100.00;99536.84;6246867;28;20050;-77
2021/01/23 02:41:34;;;;;;;33.33;17.27;;;;;;;0.23;100.00;99536.81;6245958;28;20529;-77
2021/01/23 02:44:35;;;;;;;33.55;18.52;;;;;;;0.20;100.00;99529.16;6246865;28;20123;-77
2021/01/23 02:47:37;;;;;;;40.90;19.40;;;;;;;0.20;100.00;99531.75;6245718;28;20045;-77
2021/01/23 02:50:38;;;;;;;44.03;19.58;;;;;;;0.20;100.00;99530.00;6246518;28;20123;-77
2021/01/23 02:53:39;;;;;;;47.15;19.52;;;;;;;0.21;100.00;99526.50;6247217;28;20049;-77
2021/01/23 02:56:43;;;;;;;37.47;18.77;;;;;;;0.24;100.00;99516.09;6246718;28;20103;-77
2021/01/23 02:59:46;;;;;;;37.20;19.65;;;;;;;0.25;100.00;99516.94;6247480;28;20059;-77
2021/01/23 03:02:53;;;;;;;40.90;19.45;;;;;;;0.25;100.00;99522.09;6246600;28;20732;-77
2021/01/23 03:05:54;;;;;;;41.42;18.83;;;;;;;0.27;100.00;99522.88;6246807;28;20177;-77
2021/01/23 03:08:55;;;;;;;37.53;19.15;;;;;;;0.27;100.00;99527.22;6246204;28;20213;-77
2021/01/23 03:11:56;;;;;;;39.75;19.52;;;;;;;0.28;100.00;99529.78;6246700;28;20124;-77
2021/01/23 03:14:56;;;;;;;40.78;20.58;;;;;;;0.27;100.00;99525.47;6246700;28;20107;-77
2021/01/23 03:17:59;;;;;;;43.00;19.35;;;;;;;0.29;100.00;99530.63;6246052;28;20049;-76
2021/01/23 03:21:00;;;;;;;44.05;22.42;;;;;;;0.28;100.00;99540.09;6246203;28;20049;-76
2021/01/23 03:24:00;;;;;;;39.30;18.92;;;;;;;0.32;100.00;99544.28;6246513;28;20054;-76
2021/01/23 03:27:01;;;;;;;42.15;22.92;;;;;;;0.31;100.00;99534.81;6246187;28;20081;-77
2021/01/23 03:30:03;;;;;;;48.40;22.48;;;;;;;0.33;100.00;99532.22;6247041;28;20049;-77
2021/01/23 03:33:05;;;;;;;47.88;22.65;;;;;;;0.32;100.00;99530.50;6246251;28;20045;-77
2021/01/23 03:36:06;;;;;;;39.88;21.85;;;;;;;0.32;100.00;99533.97;6245708;28;20049;-76
2021/01/23 03:39:09;;;;;;;44.05;21.45;;;;;;;0.32;100.00;99536.53;6246108;28;20103;-76
2021/01/23 03:42:09;;;;;;;44.80;21.52;;;;;;;0.31;100.00;99536.56;6246281;28;20045;-77
2021/01/23 03:45:11;;;;;;;41.92;21.67;;;;;;;0.30;100.00;99538.31;6246364;28;20578;-77
2021/01/23 03:48:13;;;;;;;48.97;21.05;;;;;;;0.27;100.00;99533.22;6245767;28;20052;-77
2021/01/23 03:51:14;;;;;;;39.35;21.23;;;;;;;0.29;100.00;99536.63;6245604;28;20049;-77
2021/01/23 03:54:14;;;;;;;45.15;22.65;;;;;;;0.35;100.00;99540.75;6246387;28;20581;-76
2021/01/23 03:57:15;;;;;;;44.40;22.23;;;;;;;0.41;100.00;99535.38;6245521;28;20556;-76
2021/01/23 04:00:17;;;;;;;46.53;22.00;;;;;;;0.46;100.00;99539.53;6258116;28;20049;-76
2021/01/23 04:03:18;;;;;;;49.58;23.42;;;;;;;0.44;100.00;99538.72;6275562;28;20057;-77
2021/01/23 04:06:19;;;;;;;45.15;23.02;;;;;;;0.48;100.00;99531.72;6275592;28;20057;-76
2021/01/23 04:09:21;;;;;;;48.28;23.63;;;;;;;0.48;100.00;99532.56;6274855;28;20509;-76
2021/01/23 04:12:21;;;;;;;46.97;23.60;;;;;;;0.50;100.00;99540.28;6275796;28;20044;-76
2021/01/23 04:15:22;;;;;;;47.55;23.95;;;;;;;0.52;100.00;99535.91;6273357;28;20513;-76
2021/01/23 04:18:24;;;;;;;52.15;25.10;;;;;;;0.50;100.00;99535.13;6251422;28;20119;-76
2021/01/23 04:21:25;;;;;;;52.17;24.60;;;;;;;0.59;100.00;99528.78;6250055;28;20060;-76
2021/01/23 04:24:26;;;;;;;61.00;27.23;;;;;;;0.54;100.00;99528.94;6250517;28;20054;-76
2021/01/23 04:27:27;;;;;;;45.88;23.45;;;;;;;0.66;99.53;99531.13;6250329;28;20060;-76
2021/01/23 04:30:27;;;;;;;50.13;25.20;;;;;;;0.65;99.80;99523.44;6249688;28;20473;-76
2021/01/23 04:33:29;;;;;;;52.80;26.13;;;;;;;0.71;99.53;99525.81;6250146;28;20136;-77
2021/01/23 04:36:31;;;;;;;61.13;27.15;;;;;;;0.76;98.93;99524.75;6249958;28;20517;-77
2021/01/23 04:39:31;;;;;;;56.38;24.98;;;;;;;0.83;98.90;99522.00;6249927;28;20046;-76
2021/01/23 04:42:32;;;;;;;47.33;22.67;;;;;;;0.84;98.91;99513.31;6250213;28;20056;-76
2021/01/23 04:45:33;;;;;;;49.20;25.80;;;;;;;0.79;99.17;99513.47;6249659;28;20486;-76
2021/01/23 04:48:36;;;;;;;54.30;25.23;;;;;;;0.79;99.48;99515.22;6253732;28;20543;-76
2021/01/23 04:51:37;;;;;;;52.55;23.40;;;;;;;0.81;99.44;99518.59;6274538;28;20056;-76
2021/01/23 04:54:37;;;;;;;51.28;23.23;;;;;;;0.84;99.13;99506.41;6274735;28;20479;-76
2021/01/23 04:57:42;;;;;;;52.45;24.23;;;;;;;0.85;98.89;99513.25;6274083;28;20065;-76
2021/01/23 05:00:43;;;;;;;49.80;24.00;;;;;;;0.81;98.57;99514.25;6274165;28;20049;-76
2021/01/23 05:03:55;;;;;;;56.90;24.83;;;;;;;0.80;99.25;99512.56;6274312;28;20056;-76
2021/01/23 05:06:58;;;;;;;57.38;25.27;;;;;;;0.81;99.15;99508.25;6274267;28;20053;-76
2021/01/23 05:10:13;;;;;;;58.85;25.63;;;;;;;0.87;99.30;99503.72;6272888;28;20055;-76
2021/01/23 05:13:15;;;;;;;50.30;23.52;;;;;;;0.90;98.86;99493.25;6271963;28;20056;-76
2021/01/23 05:16:25;;;;;;;49.85;23.98;;;;;;;0.85;99.77;99492.56;6248931;28;20395;-76
2021/01/23 05:19:40;;;;;;;52.28;24.85;;;;;;;0.87;99.90;99495.13;6250077;28;20037;-76
2021/01/23 05:22:48;;;;;;;53.25;24.90;;;;;;;0.89;99.21;99493.31;6249245;28;20150;-76
2021/01/23 05:25:51;;;;;;;46.65;24.25;;;;;;;0.91;98.74;99488.94;6246617;28;20052;-77
2021/01/23 05:28:52;;;;;;;50.75;24.52;;;;;;;0.89;98.95;99493.31;6248339;28;20413;-77
2021/01/23 05:32:15;;;;;;;54.40;24.25;;;;;;;0.87;98.95;99497.72;6269133;23;20046;-72
2021/01/23 05:35:17;;;;;;;52.42;24.95;;;;;;;0.90;99.24;99501.03;6248184;28;20057;-72
2021/01/23 05:38:19;;;;;;;53.35;23.75;;;;;;;0.90;98.45;99495.84;6224086;28;20048;-72
2021/01/23 05:41:20;;;;;;;52.00;25.20;;;;;;;0.87;98.88;99490.81;6223633;28;20061;-72
2021/01/23 05:44:21;;;;;;;52.25;23.95;;;;;;;0.84;98.68;99484.88;6243898;28;20422;-72
2021/01/23 05:47:24;;;;;;;48.88;24.00;;;;;;;0.77;98.62;99479.06;6248370;28;20057;-73
2021/01/23 05:50:26;;;;;;;46.80;23.05;;;;;;;0.74;99.32;99471.44;6253513;28;20048;-72
2021/01/23 05:53:27;;;;;;;59.92;24.98;;;;;;;0.74;99.22;99480.03;6248346;28;20050;-72
2021/01/23 05:56:28;;;;;;;53.70;25.08;;;;;;;0.72;98.47;99480.97;6248080;28;20049;-72
2021/01/23 05:59:29;;;;;;;52.03;23.80;;;;;;;0.68;99.10;99479.38;6248010;28;20053;-73
2021/01/23 06:02:31;;;;;;;50.22;23.02;;;;;;;0.66;99.24;99482.00;6248081;28;20705;-72
2021/01/23 06:05:33;;;;;;;50.72;24.67;;;;;;;0.67;99.54;99483.69;6248316;28;20080;-73
2021/01/23 06:08:41;;;;;;;58.15;25.40;;;;;;;0.59;99.51;99487.44;6247655;28;20049;-73
2021/01/23 06:11:42;;;;;;;51.40;25.15;;;;;;;0.53;99.62;99485.91;6247899;28;20072;-73
2021/01/23 06:14:43;;;;;;;51.60;23.98;;;;;;;0.60;100.00;99494.31;6247858;28;20049;-72
2021/01/23 06:17:48;;;;;;;53.70;24.75;;;;;;;0.62;99.39;99490.75;6247910;28;20125;-72
2021/01/23 06:20:51;;;;;;;52.00;23.83;;;;;;;0.57;99.55;99484.91;6248285;28;20510;-73
2021/01/23 06:23:52;;;;;;;51.03;23.13;;;;;;;0.62;98.79;99485.59;6247613;28;20460;-73
2021/01/23 06:26:57;;;;;;;52.70;24.30;;;;;;;0.64;99.62;99493.31;6247291;28;20054;-73
2021/01/23 06:29:58;;;;;;;52.17;23.95;;;;;;;0.60;99.23;99502.91;6245189;28;20041;-73
2021/01/23 06:32:59;;;;;;;53.80;25.23;;;;;;;0.64;98.99;99489.00;6246844;28;20900;-73
2021/01/23 06:36:19;;;;;;;66.75;25.83;;;;;;;0.72;99.01;99486.97;6246971;28;20057;-72
2021/01/23 06:39:20;;;;;;;50.72;24.45;;;;;;;0.63;98.95;99487.28;6247031;28;20045;-75
2021/01/23 06:42:21;;;;;;;46.78;23.33;;;;;;;0.60;99.00;99483.97;6246949;28;20045;-72
2021/01/23 06:45:25;;;;;;;52.50;24.52;;;;;;;0.56;99.46;99490.97;6247060;28;20046;-72
2021/01/23 06:48:25;;;;;;;51.03;23.52;;;;;;;0.55;99.20;99484.13;6247715;28;20564;-72
2021/01/23 06:51:27;;;;;;;57.58;24.70;;;;;;;0.57;99.74;99484.06;6246784;28;20136;-72
2021/01/23 06:54:28;;;;;;;50.30;22.98;;;;;;;0.50;99.47;99478.25;6246976;28;20099;-72
2021/01/23 06:57:29;;;;;;;51.35;24.48;;;;;;;0.55;99.77;99480.69;6246910;28;20050;-72
2021/01/23 07:00:34;;;;;;;54.88;23.98;;;;;;;0.47;99.96;99471.44;6246300;28;20577;-72
2021/01/23 07:03:35;;;;;;;58.08;24.95;;;;;;;0.46;100.00;99469.75;6246946;28;20049;-72
2021/01/23 07:06:37;;;;;;;53.70;23.63;;;;;;;0.44;99.69;99461.19;6246387;28;20072;-72
2021/01/23 07:09:46;;;;;;;51.95;25.25;;;;;;;0.51;99.04;99454.09;6245833;28;20049;-72
2021/01/23 07:12:47;;;;;;;;;;;;;;;0.40;98.71;99462.19;6247081;28;20045;-71
2021/01/23 07:15:48;;;;;;;53.50;23.08;;;;;;;0.38;98.99;99458.81;6246562;28;20474;-72
2021/01/23 07:18:53;;;;;;;46.42;22.98;;;;;;;0.35;99.40;99461.50;6247120;28;20080;-71
2021/01/23 07:21:55;;;;;;;53.65;25.95;;;;;;;0.33;99.80;99459.88;6246170;28;20056;-72
2021/01/23 07:24:57;;;;;;;51.47;22.98;;;;;;;0.33;99.39;99460.72;6246496;28;20056;-72
2021/01/23 07:27:58;;;;;;;56.28;23.48;;;;;;;0.33;99.44;99457.28;6246130;28;20041;-72
2021/01/23 07:31:16;;;;;;;51.10;22.20;;;;;;;0.40;99.16;99462.19;6245790;28;20524;-72
2021/01/23 07:34:17;;;;;;;47.78;22.38;;;;;;;0.53;99.91;99459.22;6246155;28;20045;-71
2021/01/23 07:37:41;;;;;;;52.40;22.70;;;;;;;0.44;99.63;99471.53;6246182;28;20572;-71
2021/01/23 07:40:42;;;;;;;47.47;23.00;;;;;;;0.50;99.38;99468.75;6221534;28;20050;-72
2021/01/23 07:43:43;;;;;;;54.45;22.98;;;;;;;0.50;99.27;99471.34;6221903;28;20053;-72
2021/01/23 07:46:48;;;;;;;51.75;24.55;;;;;;;0.48;98.85;99470.53;6221385;28;20069;-71
2021/01/23 07:49:49;;;;;;;49.35;23.20;;;;;;;0.54;99.33;99469.47;6263278;28;20130;-71
2021/01/23 07:52:51;;;;;;;56.58;23.42;;;;;;;0.47;99.07;99468.00;6270669;28;20414;-71
2021/01/23 07:55:52;;;;;;;54.20;23.45;;;;;;;0.52;99.52;99466.13;6270631;28;20644;-73
2021/01/23 07:58:53;;;;;;;46.38;22.05;;;;;;;0.47;99.54;99470.59;6269894;28;20417;-71
2021/01/23 08:02:02;;;;;;;51.83;22.30;;;;;;;0.38;99.18;99461.41;6270775;28;20045;-71
2021/01/23 08:05:03;;;;;;;55.08;22.25;;;;;;;0.37;99.48;99459.72;6270754;28;20053;-72
2021/01/23 08:08:05;;;;;;;45.90;22.45;;;;;;;0.42;99.30;99456.97;6252805;28;20049;-71
2021/01/23 08:11:06;;;;;;;48.75;21.48;;;;;;;0.42;99.53;99454.41;6245369;28;20467;-71
2021/01/23 08:14:11;;;;;;;43.80;21.23;;;;;;;0.41;99.14;99450.09;6245684;28;20046;-72
2021/01/23 08:17:12;;;;;;;45.30;20.50;;;;;;;0.41;99.17;99456.16;6245616;28;20076;-72
2021/01/23 08:20:14;;;;;;;46.70;21.23;;;;;;;0.66;98.22;99450.16;6267369;28;20068;-71
2021/01/23 08:23:18;;;;;;;49.05;21.20;;;;;;;0.54;98.56;99446.22;6270508;28;20053;-71
2021/01/23 08:26:19;;;;;;;45.50;21.35;;;;;;;0.57;98.84;99455.63;6270194;28;20057;-72
2021/01/23 08:29:20;;;;;;;44.25;21.30;;;;;;;0.67;98.54;99447.50;6268707;28;20056;-71
2021/01/23 08:32:20;;;;;;;53.50;20.88;;;;;;;0.75;97.97;99448.09;6245457;28;20136;-71
2021/01/23 08:35:22;;;;;;;46.28;20.02;;;;;;;0.83;97.98;99450.44;6245780;28;20049;-71
2021/01/23 08:38:24;;;;;;;42.40;20.40;;;;;;;0.90;97.52;99451.03;6244970;28;20053;-71
2021/01/23 08:41:25;;;;;;;40.35;19.73;;;;;;;0.90;97.18;99445.88;6245347;28;20103;-71
2021/01/23 08:44:26;;;;;;;45.33;20.98;;;;;;;0.93;97.94;99445.78;6245833;28;20392;-72
2021/01/23 08:47:27;;;;;;;45.22;20.33;;;;;;;0.98;97.24;99451.63;6251292;28;20052;-72
2021/01/23 08:50:27;;;;;;;48.13;20.52;;;;;;;1.05;97.60;99463.47;6274582;28;20049;-75
2021/01/23 08:53:29;;;;;;;39.22;19.65;;;;;;;1.10;97.06;99458.13;6262806;28;20050;-72
2021/01/23 08:56:30;;;;;;;42.20;19.23;;;;;;;1.22;97.28;99453.31;6248376;28;20406;-72
2021/01/23 08:59:31;;;;;;;45.83;20.27;;;;;;;1.17;96.91;99451.81;6249025;28;20053;-72
2021/01/23 09:02:32;;;;;;;50.33;19.33;;;;;;;1.24;96.79;99451.56;6249790;28;20053;-72
2021/01/23 09:05:33;;;;;;;41.30;19.05;;;;;;;1.23;97.12;99452.47;6249064;28;20506;-72
2021/01/23 09:08:34;;;;;;;44.13;19.23;;;;;;;1.32;96.58;99463.34;6249107;28;20472;-73
2021/01/23 09:11:37;;;;;;;42.35;18.75;;;;;;;1.50;95.78;99465.28;6249359;28;20057;-72
2021/01/23 09:14:38;;;;;;;39.40;18.50;;;;;;;1.53;95.19;99457.41;6250305;28;20049;-73
2021/01/23 09:17:39;;;;;;;44.33;18.27;;;;;;;1.59;95.35;99458.91;6249009;28;20053;-73
2021/01/23 09:20:40;;;;;;;41.70;18.35;;;;;;;1.66;95.49;99456.03;6248781;28;20060;-72
2021/01/23 09:23:42;;;;;;;37.85;18.08;;;;;;;1.66;95.14;99458.63;6249160;28;20050;-73
2021/01/23 09:26:43;;;;;;;39.88;17.73;;;;;;;1.69;95.66;99460.28;6248910;28;20049;-73
2021/01/23 09:29:43;;;;;;;42.90;18.25;;;;;;;1.81;93.93;99470.16;6243584;28;20073;-73
2021/01/23 09:32:44;;;;;;;38.30;17.00;;;;;;;1.98;92.85;99457.38;6243477;28;20522;-74
2021/01/23 09:35:45;;;;;;;34.60;17.65;;;;;;;1.97;91.94;99462.66;6245223;28;20064;-73
2021/01/23 09:38:47;;;;;;;35.50;16.70;;;;;;;2.00;92.30;99463.38;6248178;28;20049;-74
2021/01/23 09:41:48;;;;;;;35.15;15.43;;;;;;;1.98;92.52;99464.31;6248500;28;20049;-73
2021/01/23 09:44:49;;;;;;;36.33;16.60;;;;;;;2.08;92.69;99465.66;6269732;28;20421;-72
2021/01/23 09:47:50;;;;;;;36.60;17.08;;;;;;;2.16;93.05;99463.59;6247610;28;20077;-73
2021/01/23 09:50:50;;;;;;;28.65;15.35;;;;;;;2.32;90.76;99474.22;6247831;28;20084;-73
2021/01/23 09:53:52;;;;;;;39.45;15.30;;;;;;;2.43;90.00;99472.03;6248335;28;20073;-74
2021/01/23 09:56:54;;;;;;;33.83;15.38;;;;;;;2.56;89.82;99479.31;6247900;28;20046;-75
2021/01/23 09:59:54;;;;;;;31.50;13.73;;;;;;;2.63;89.67;99470.34;6247848;28;20061;-74
2021/01/23 10:02:55;;;;;;;31.10;14.60;;;;;;;2.74;89.65;99473.38;6247926;28;20050;-76
2021/01/23 10:05:56;;;;;;;30.38;14.40;;;;;;;2.96;89.00;99470.72;6247451;28;20049;-75
2021/01/23 10:08:58;;;;;;;30.17;13.60;;;;;;;3.14;86.45;99466.47;6247523;28;20743;-76
2021/01/23 10:11:59;;;;;;;26.90;12.88;;;;;;;3.15;86.80;99463.81;6247517;28;20526;-77
2021/01/23 10:15:01;;;;;;;27.70;12.65;;;;;;;3.27;84.84;99455.50;6248920;28;20060;-74
2021/01/23 10:18:02;;;;;;;21.35;11.88;;;;;;;3.44;84.60;99456.47;6247352;28;20379;-77
2021/01/23 10:21:04;;;;;;;27.08;11.77;;;;;;;3.42;85.11;99455.72;6247402;28;20056;-77
2021/01/23 10:24:07;;;;;;;31.33;12.63;;;;;;;3.35;84.80;99456.88;6247800;28;20518;-73
2021/01/23 10:27:08;;;;;;;21.55;11.30;;;;;;;3.43;84.37;99460.00;6247371;28;20083;-76
2021/01/23 10:30:10;;;;;;;26.83;13.88;;;;;;;3.39;84.54;99468.81;6247177;28;20399;-78
2021/01/23 10:33:11;;;;;;;26.67;11.40;;;;;;;3.36;83.97;99456.84;6247026;28;20099;-75
2021/01/23 10:36:12;;;;;;;27.20;11.13;;;;;;;3.30;84.73;99455.34;6247017;28;20053;-72
2021/01/23 10:39:13;;;;;;;30.02;11.57;;;;;;;3.39;84.61;99445.47;6244301;28;20092;-74
2021/01/23 10:42:15;;;;;;;26.30;10.55;;;;;;;3.59;84.26;99448.00;6246626;28;20041;-73
2021/01/23 10:45:16;;;;;;;24.63;10.82;;;;;;;3.67;84.69;99445.88;6246786;28;20060;-73
2021/01/23 10:48:17;;;;;;;22.77;9.93;;;;;;;4.00;82.47;99433.09;6245623;28;20041;-73
2021/01/23 10:51:18;;;;;;;24.83;9.02;;;;;;;4.02;83.34;99439.03;6245436;28;20049;-73
2021/01/23 10:54:19;;;;;;;23.17;9.20;;;;;;;4.10;81.38;99430.06;6246809;28;20053;-73
2021/01/23 10:57:20;;;;;;;20.35;8.32;;;;;;;4.12;82.31;99430.81;6245650;28;20110;-73
2021/01/23 11:00:22;;;;;;;12.98;7.30;;;;;;;4.37;81.83;99435.69;6245769;28;20083;-73
2021/01/23 11:03:23;;;;;;;14.05;6.53;;;;;;;4.57;80.64;99425.94;6246980;28;20064;-73
2021/01/23 11:06:24;;;;;;;11.80;6.40;;;;;;;4.43;81.12;99419.75;6246522;28;20077;-73
2021/01/23 11:09:26;;;;;;;12.18;6.32;;;;;;;4.35;81.50;99414.09;6245436;28;20041;-73
2021/01/23 11:12:27;;;;;;;16.50;6.93;;;;;;;4.49;80.93;99415.09;6247749;28;20081;-72
2021/01/23 11:15:28;;;;;;;15.38;7.55;;;;;;;4.37;82.62;99407.06;6271176;28;20515;-71
2021/01/23 11:18:29;;;;;;;19.85;6.32;;;;;;;4.56;81.64;99406.06;6270875;28;20094;-72
2021/01/23 11:21:29;;;;;;;13.13;5.63;;;;;;;4.75;80.14;99411.19;6270721;28;20259;-73
2021/01/23 11:24:31;;;;;;;11.13;5.72;;;;;;;4.52;80.62;99404.53;6271088;28;20110;-73
2021/01/23 11:27:32;;;;;;;17.63;6.55;;;;;;;4.61;80.58;99405.00;6269057;28;20044;-73
2021/01/23 11:30:33;;;;;;;12.95;6.47;;;;;;;4.78;80.49;99407.59;6251838;28;20052;-73
2021/01/23 11:33:35;;;;;;;11.90;5.97;;;;;;;4.74;80.35;99395.66;6245232;28;20046;-73
2021/01/23 11:36:36;;;;;;;17.63;6.60;;;;;;;4.62;80.95;99397.09;6245752;28;20437;-73
2021/01/23 11:39:37;;;;;;;15.82;6.30;;;;;;;4.53;81.70;99398.41;6245499;28;20049;-73
2021/01/23 11:42:38;;;;;;;14.38;6.38;;;;;;;4.59;81.23;99389.47;6247071;28;20053;-73
2021/01/23 11:45:39;;;;;;;13.70;6.30;;;;;;;4.70;81.68;99391.53;6270865;28;20095;-73
2021/01/23 11:48:40;;;;;;;14.05;6.35;;;;;;;4.64;81.35;99387.47;6270100;28;20467;-73
2021/01/23 11:51:41;;;;;;;13.48;6.47;;;;;;;4.72;81.86;99372.28;6270879;28;20049;-73
2021/01/23 11:54:43;;;;;;;17.05;6.60;;;;;;;4.71;80.15;99382.78;6270439;28;20049;-73
2021/01/23 11:57:43;;;;;;;11.80;6.35;;;;;;;4.67;81.06;99366.47;6269114;28;20045;-75
2021/01/23 12:00:44;;;;;;;14.32;5.75;;;;;;;4.83;78.43;99359.59;6242860;28;20084;-76
2021/01/23 12:03:45;;;;;;;15.73;6.60;;;;;;;4.74;79.70;99367.88;6243845;28;20502;-75
2021/01/23 12:06:47;;;;;;;15.05;6.22;;;;;;;4.69;79.65;99349.06;6241991;28;20057;-74
2021/01/23 12:09:48;;;;;;;12.70;5.85;;;;;;;5.19;77.71;99336.91;6237097;28;20042;-73
2021/01/23 12:12:50;;;;;;;13.90;6.65;;;;;;;5.11;77.59;99336.47;6224521;28;20053;-74
2021/01/23 12:15:51;;;;;;;12.98;5.53;;;;;;;4.97;77.95;99337.19;6245896;28;20057;-74
2021/01/23 12:18:52;;;;;;;11.13;5.65;;;;;;;4.92;78.18;99337.44;6245072;28;20156;-74
2021/01/23 12:21:53;;;;;;;12.20;5.20;;;;;;;4.97;77.46;99324.19;6248598;28;20061;-74
2021/01/23 12:24:54;;;;;;;12.98;6.30;;;;;;;5.05;77.16;99328.06;6225761;28;20112;-74
2021/01/23 12:27:55;;;;;;;13.70;5.50;;;;;;;4.95;78.15;99332.06;6237297;28;20096;-73
2021/01/23 12:30:56;;;;;;;19.73;5.93;;;;;;;4.90;78.79;99323.66;6250544;28;20049;-78
2021/01/23 12:33:57;;;;;;;11.55;5.45;;;;;;;4.88;78.10;99312.50;6250172;28;20091;-74
2021/01/23 12:36:58;;;;;;;11.75;5.32;;;;;;;4.78;79.15;99314.75;6249742;28;20045;-75
2021/01/23 12:40:00;;;;;;;10.10;5.55;;;;;;;4.76;78.19;99324.38;6249789;28;20486;-74
2021/01/23 12:43:01;;;;;;;9.45;6.18;;;;;;;4.88;78.84;99311.66;6256713;28;20505;-74
2021/01/23 12:46:02;;;;;;;15.45;6.20;;;;;;;4.87;79.10;99299.56;6274299;28;20056;-74
2021/01/23 12:49:02;;;;;;;9.95;5.68;;;;;;;4.89;77.58;99303.75;6273947;28;20041;-74
2021/01/23 12:52:04;;;;;;;11.55;5.80;;;;;;;5.11;79.04;99298.25;6274367;28;20103;-74
2021/01/23 12:55:08;;;;;;;12.93;4.97;;;;;;;5.16;76.97;99298.81;6274598;28;20056;-74
2021/01/23 12:58:09;;;;;;;8.05;4.78;;;;;;;5.10;76.64;99299.16;6250859;28;20056;-74
2021/01/23 13:01:10;;;;;;;10.38;5.35;;;;;;;5.07;77.33;99296.72;6248798;28;20543;-80
2021/01/23 13:04:10;;;;;;;11.45;5.38;;;;;;;5.19;77.30;99290.84;6249338;28;20053;-76
2021/01/23 13:07:11;;;;;;;13.15;5.72;;;;;;;5.13;76.66;99295.53;6243840;28;20060;-74
2021/01/23 13:10:14;;;;;;;13.13;4.50;;;;;;;5.12;76.29;99289.50;6248638;28;20073;-75
2021/01/23 13:13:15;;;;;;;11.75;4.57;;;;;;;5.28;75.43;99297.31;6239800;28;20095;-73
2021/01/23 13:16:17;;;;;;;11.77;4.55;;;;;;;5.04;75.81;99292.53;6248633;28;20049;-74
2021/01/23 13:19:18;;;;;;;11.45;4.90;;;;;;;4.90;76.38;99291.56;6248897;28;20103;-75
2021/01/23 13:22:19;;;;;;;10.25;4.60;;;;;;;5.07;75.42;99287.13;6248562;28;20045;-76
2021/01/23 13:25:22;;;;;;;9.25;4.75;;;;;;;4.91;75.33;99288.91;6249146;28;20056;-74
2021/01/23 13:28:23;;;;;;;12.52;4.93;;;;;;;4.97;76.82;99293.78;6248767;28;20041;-74
2021/01/23 13:31:24;;;;;;;9.98;4.60;;;;;;;4.89;77.44;99288.13;6247165;28;20053;-75
2021/01/23 13:34:25;;;;;;;11.63;4.85;;;;;;;4.90;76.82;99297.63;6249089;28;20045;-74
2021/01/23 13:37:26;;;;;;;8.90;4.80;;;;;;;4.84;76.60;99296.19;6248717;28;20068;-73
2021/01/23 13:40:28;;;;;;;9.68;4.72;;;;;;;4.78;77.34;99293.91;6248464;28;20077;-74
2021/01/23 13:43:30;;;;;;;10.00;4.38;;;;;;;4.82;78.64;99286.81;6256266;28;20409;-75
2021/01/23 13:46:31;;;;;;;18.30;5.32;;;;;;;5.06;77.15;99277.66;6273080;28;20053;-74
2021/01/23 13:49:32;;;;;;;9.90;4.63;;;;;;;4.80;78.67;99284.25;6273083;28;20041;-73
2021/01/23 13:52:33;;;;;;;9.07;5.00;;;;;;;4.81;78.91;99295.50;6273199;28;20064;-74
2021/01/23 13:55:34;;;;;;;10.05;4.97;;;;;;;4.98;77.88;99282.44;6253100;28;20049;-74
2021/01/23 13:58:35;;;;;;;14.95;5.63;;;;;;;5.00;77.25;99284.97;6247733;28;20045;-73
2021/01/23 14:01:36;;;;;;;9.18;4.43;;;;;;;4.92;77.18;99274.97;6248198;28;20469;-80
2021/01/23 14:04:37;;;;;;;9.88;4.53;;;;;;;4.86;78.88;99274.44;6248260;28;20055;-74
2021/01/23 14:07:38;;;;;;;12.93;5.80;;;;;;;4.90;78.77;99281.16;6246822;28;20045;-74